Time,TemperatureF,DewpointF,PressureIn,WindDirection,WindDirectionDegrees,WindSpeedMPH,WindSpeedGustMPH,Humidity,HourlyPrecipIn,Conditions,Clouds,dailyrainin,SoftwareType,DateUTC
2013-03-25 00:02:00,45.0,20.0,-100.00,NE,48,3.0,6.0,36,-99.99,,,-99.99,,2013-03-25 07:02:00,
2013-03-25 00:12:00,40.0,21.0,-100.00,East,83,6.0,8.0,46,-99.99,,,-99.99,,2013-03-25 07:12:00,
2013-03-25 00:21:00,40.0,21.0,-100.00,East,83,6.0,8.0,46,-99.99,,,-99.99,,2013-03-25 07:21:00,
2013-03-25 00:31:00,40.0,20.0,-100.00,East,82,5.0,7.0,44,-99.99,,,-99.99,,2013-03-25 07:31:00,
2013-03-25 00:41:00,43.0,16.0,-100.00,ENE,72,4.0,8.0,33,-99.99,,,-99.99,,2013-03-25 07:41:00,
2013-03-25 00:42:00,40.0,21.0,-100.00,East,85,5.0,7.0,45,-99.99,,,-99.99,,2013-03-25 07:42:00,
2013-03-25 00:52:00,39.0,21.0,-100.00,East,90,3.0,8.0,49,-99.99,,,-99.99,,2013-03-25 07:52:00,
2013-03-25 01:02:00,42.0,18.0,-100.00,ENE,66,7.0,10.0,38,-99.99,,,-99.99,,2013-03-25 08:02:00,
2013-03-25 01:12:00,42.0,18.0,-100.00,ENE,66,7.0,10.0,38,-99.99,,,-99.99,,2013-03-25 08:12:00,
2013-03-25 01:22:00,43.0,16.0,-100.00,ENE,72,4.0,8.0,33,-99.99,,,-99.99,,2013-03-25 08:22:00,
2013-03-25 01:32:00,43.0,16.0,-100.00,ENE,72,4.0,8.0,33,-99.99,,,-99.99,,2013-03-25 08:32:00,
2013-03-25 02:02:00,38.0,18.0,-100.00,ENE,78,4.0,8.0,44,-99.99,,,-99.99,,2013-03-25 09:02:00,
2013-03-25 02:12:00,37.0,17.0,-100.00,NE,54,2.0,7.0,43,-99.99,,,-99.99,,2013-03-25 09:12:00,
2013-03-25 02:22:00,37.0,17.0,-100.00,NE,54,2.0,7.0,43,-99.99,,,-99.99,,2013-03-25 09:22:00,
2013-03-25 02:32:00,37.0,21.0,-100.00,North,350,6.0,9.0,53,-99.99,,,-99.99,,2013-03-25 09:32:00,
2013-03-25 02:42:00,33.0,20.0,-100.00,NW,312,3.0,5.0,59,-99.99,,,-99.99,,2013-03-25 09:42:00,
2013-03-25 02:52:00,33.0,20.0,-100.00,NW,312,3.0,5.0,59,-99.99,,,-99.99,,2013-03-25 09:52:00,
2013-03-25 03:02:00,35.0,22.0,-100.00,East,80,3.0,7.0,59,-99.99,,,-99.99,,2013-03-25 10:02:00,
2013-03-25 03:12:00,33.0,20.0,-100.00,SE,124,4.0,7.0,59,-99.99,,,-99.99,,2013-03-25 10:12:00,
2013-03-25 03:22:00,34.0,20.0,-100.00,ENE,75,4.0,7.0,56,-99.99,,,-99.99,,2013-03-25 10:22:00,
2013-03-25 03:32:00,34.0,20.0,-100.00,ENE,75,4.0,7.0,56,-99.99,,,-99.99,,2013-03-25 10:32:00,
2013-03-25 03:42:00,33.0,20.0,-100.00,SSE,157,3.0,9.0,59,-99.99,,,-99.99,,2013-03-25 10:42:00,
2013-03-25 03:52:00,34.0,20.0,-100.00,ESE,121,4.0,6.0,57,-99.99,,,-99.99,,2013-03-25 10:52:00,
2013-03-25 04:02:00,34.0,20.0,-100.00,ESE,121,4.0,6.0,57,-99.99,,,-99.99,,2013-03-25 11:02:00,
2013-03-25 04:12:00,33.0,18.0,-100.00,SE,137,2.0,5.0,54,-99.99,,,-99.99,,2013-03-25 11:12:00,
2013-03-25 04:23:00,30.0,18.0,-100.00,East,99,3.0,6.0,61,-99.99,,,-99.99,,2013-03-25 11:23:00,
2013-03-25 04:32:00,30.0,18.0,-100.00,East,99,3.0,6.0,61,-99.99,,,-99.99,,2013-03-25 11:32:00,
2013-03-25 04:42:00,33.0,19.0,-100.00,East,89,3.0,6.0,57,-99.99,,,-99.99,,2013-03-25 11:42:00,
2013-03-25 04:52:00,30.0,21.0,-100.00,SSE,151,2.0,6.0,69,-99.99,,,-99.99,,2013-03-25 11:52:00,
2013-03-25 05:02:00,30.0,21.0,-100.00,SSE,151,2.0,6.0,69,-99.99,,,-99.99,,2013-03-25 12:02:00,
2013-03-25 05:12:00,30.0,22.0,-100.00,South,171,2.0,5.0,71,-99.99,,,-99.99,,2013-03-25 12:12:00,
2013-03-25 05:22:00,30.0,21.0,-100.00,SSE,160,1.0,4.0,68,-99.99,,,-99.99,,2013-03-25 12:22:00,
2013-03-25 05:32:00,30.0,21.0,-100.00,SSE,160,1.0,4.0,68,-99.99,,,-99.99,,2013-03-25 12:32:00,
2013-03-25 05:42:00,29.0,19.0,-100.00,ESE,120,1.0,4.0,65,-99.99,,,-99.99,,2013-03-25 12:42:00,
2013-03-25 05:52:00,26.0,16.0,-100.00,ENE,64,2.0,4.0,66,-99.99,,,-99.99,,2013-03-25 12:52:00,
2013-03-25 06:02:00,26.0,16.0,-100.00,ENE,64,2.0,4.0,66,-99.99,,,-99.99,,2013-03-25 13:02:00,
2013-03-25 06:12:00,25.0,15.0,-100.00,ESE,121,1.0,5.0,65,-99.99,,,-99.99,,2013-03-25 13:12:00,
2013-03-25 06:22:00,25.0,14.0,-100.00,ESE,117,2.0,4.0,64,-99.99,,,-99.99,,2013-03-25 13:22:00,
2013-03-25 06:32:00,24.0,14.0,-100.00,East,99,2.0,4.0,66,-99.99,,,-99.99,,2013-03-25 13:32:00,
2013-03-25 06:42:00,24.0,14.0,-100.00,East,82,2.0,5.0,66,-99.99,,,-99.99,,2013-03-25 13:42:00,
2013-03-25 06:52:00,24.0,14.0,-100.00,East,82,2.0,5.0,66,-99.99,,,-99.99,,2013-03-25 13:52:00,
2013-03-25 07:02:00,25.0,14.0,-100.00,ENE,73,1.0,4.0,62,-99.99,,,-99.99,,2013-03-25 14:02:00,
2013-03-25 07:12:00,25.0,14.0,-100.00,ENE,73,1.0,4.0,62,-99.99,,,-99.99,,2013-03-25 14:12:00,
2013-03-25 07:22:00,24.0,13.0,-100.00,East,82,3.0,5.0,60,-99.99,,,-99.99,,2013-03-25 14:22:00,
2013-03-25 07:32:00,25.0,12.0,-100.00,East,89,5.0,7.0,56,-99.99,,,-99.99,,2013-03-25 14:32:00,
2013-03-25 07:42:00,25.0,12.0,-100.00,ENE,72,3.0,7.0,56,-99.99,,,-99.99,,2013-03-25 14:42:00,
2013-03-25 07:52:00,25.0,12.0,-100.00,ENE,72,3.0,7.0,56,-99.99,,,-99.99,,2013-03-25 14:52:00,
2013-03-25 08:02:00,24.0,13.0,-100.00,East,85,3.0,6.0,62,-99.99,,,-99.99,,2013-03-25 15:02:00,
2013-03-25 08:12:00,25.0,16.0,-100.00,SE,136,2.0,6.0,69,-99.99,,,-99.99,,2013-03-25 15:12:00,
2013-03-25 08:22:00,25.0,16.0,-100.00,SE,136,2.0,6.0,69,-99.99,,,-99.99,,2013-03-25 15:22:00,
2013-03-25 08:32:00,25.0,16.0,-100.00,SE,136,2.0,6.0,69,-99.99,,,-99.99,,2013-03-25 15:32:00,
2013-03-25 08:53:00,32.0,20.0,-100.00,SE,133,1.0,4.0,62,-99.99,,,-99.99,,2013-03-25 15:53:00,
2013-03-25 09:03:00,32.0,20.0,-100.00,SE,133,1.0,4.0,62,-99.99,,,-99.99,,2013-03-25 16:03:00,
2013-03-25 09:12:00,32.0,20.0,-100.00,SE,133,1.0,4.0,62,-99.99,,,-99.99,,2013-03-25 16:12:00,
2013-03-25 09:23:00,36.0,22.0,-100.00,West,275,0.0,3.0,57,-99.99,,,-99.99,,2013-03-25 16:23:00,
2013-03-25 09:32:00,36.0,22.0,-100.00,West,275,0.0,3.0,57,-99.99,,,-99.99,,2013-03-25 16:32:00,
2013-03-25 09:42:00,39.0,21.0,-100.00,NNW,340,1.0,4.0,48,-99.99,,,-99.99,,2013-03-25 16:42:00,
2013-03-25 09:53:00,41.0,18.0,-100.00,North,357,1.0,4.0,39,-99.99,,,-99.99,,2013-03-25 16:53:00,
2013-03-25 10:02:00,41.0,18.0,-100.00,North,357,1.0,4.0,39,-99.99,,,-99.99,,2013-03-25 17:02:00,
2013-03-25 10:03:00,47.0,19.0,-100.00,SSW,200,1.0,4.0,32,-99.99,,,-99.99,,2013-03-25 17:03:00,
2013-03-25 10:12:00,45.0,20.0,-100.00,SSE,155,0.0,2.0,36,-99.99,,,-99.99,,2013-03-25 17:12:00,
2013-03-25 10:23:00,44.0,18.0,-100.00,South,176,1.0,5.0,35,-99.99,,,-99.99,,2013-03-25 17:23:00,
2013-03-25 10:32:00,44.0,18.0,-100.00,South,176,1.0,5.0,35,-99.99,,,-99.99,,2013-03-25 17:32:00,
2013-03-25 10:42:00,47.0,19.0,-100.00,SSW,200,1.0,4.0,32,-99.99,,,-99.99,,2013-03-25 17:42:00,
2013-03-25 10:53:00,47.0,19.0,-100.00,SSW,200,1.0,4.0,32,-99.99,,,-99.99,,2013-03-25 17:53:00,
2013-03-25 11:22:00,51.0,17.0,-100.00,SW,230,1.0,4.0,26,-99.99,,,-99.99,,2013-03-25 18:22:00,
2013-03-25 11:32:00,53.0,22.0,-100.00,South,189,1.0,5.0,29,-99.99,,,-99.99,,2013-03-25 18:32:00,
2013-03-25 11:42:00,53.0,22.0,-100.00,South,189,1.0,5.0,29,-99.99,,,-99.99,,2013-03-25 18:42:00,
2013-03-25 11:52:00,53.0,22.0,-100.00,South,189,1.0,5.0,29,-99.99,,,-99.99,,2013-03-25 18:52:00,
2013-03-25 13:42:00,65.0,9.0,-100.00,WNW,301,4.0,8.0,11,-99.99,,,-99.99,,2013-03-25 20:42:00,
2013-03-25 13:52:00,65.0,5.0,-100.00,SSE,158,4.0,10.0,9,-99.99,,,-99.99,,2013-03-25 20:52:00,
2013-03-25 14:02:00,65.0,5.0,-100.00,SSE,158,4.0,10.0,9,-99.99,,,-99.99,,2013-03-25 21:02:00,
2013-03-25 14:12:00,66.0,14.0,-100.00,SW,233,8.0,17.0,13,-99.99,,,-99.99,,2013-03-25 21:12:00,
2013-03-25 14:22:00,66.0,14.0,-100.00,SW,233,8.0,17.0,13,-99.99,,,-99.99,,2013-03-25 21:22:00,
2013-03-25 14:32:00,66.0,14.0,-100.00,SW,233,8.0,17.0,13,-99.99,,,-99.99,,2013-03-25 21:32:00,
2013-03-25 14:42:00,65.0,13.0,-100.00,SW,219,20.0,29.0,13,-99.99,,,-99.99,,2013-03-25 21:42:00,
2013-03-25 14:52:00,65.0,13.0,-100.00,SW,219,20.0,29.0,13,-99.99,,,-99.99,,2013-03-25 21:52:00,
2013-03-25 15:03:00,65.0,9.0,-100.00,SW,220,20.0,30.0,11,-99.99,,,-99.99,,2013-03-25 22:03:00,
2013-03-25 15:12:00,65.0,7.0,-100.00,SW,229,19.0,31.0,10,-99.99,,,-99.99,,2013-03-25 22:12:00,
2013-03-25 15:23:00,65.0,11.0,-100.00,SW,232,19.0,28.0,12,-99.99,,,-99.99,,2013-03-25 22:23:00,
2013-03-25 15:32:00,65.0,13.0,-100.00,SW,230,22.0,36.0,13,-99.99,,,-99.99,,2013-03-25 22:32:00,
2013-03-25 15:42:00,64.0,8.0,-100.00,SW,226,21.0,30.0,11,-99.99,,,-99.99,,2013-03-25 22:42:00,
2013-03-25 15:52:00,64.0,8.0,-100.00,SW,226,21.0,30.0,11,-99.99,,,-99.99,,2013-03-25 22:52:00,
2013-03-25 16:02:00,64.0,8.0,-100.00,SW,217,20.0,28.0,11,-99.99,,,-99.99,,2013-03-25 23:02:00,
2013-03-25 16:12:00,64.0,12.0,-100.00,SW,215,22.0,31.0,13,-99.99,,,-99.99,,2013-03-25 23:12:00,
2013-03-25 16:22:00,64.0,12.0,-100.00,SW,215,22.0,31.0,13,-99.99,,,-99.99,,2013-03-25 23:22:00,
2013-03-25 16:32:00,64.0,12.0,-100.00,SW,227,21.0,33.0,13,-99.99,,,-99.99,,2013-03-25 23:32:00,
2013-03-25 16:42:00,63.0,13.0,-100.00,SW,227,23.0,32.0,14,-99.99,,,-99.99,,2013-03-25 23:42:00,
2013-03-25 16:52:00,63.0,13.0,-100.00,SW,227,23.0,32.0,14,-99.99,,,-99.99,,2013-03-25 23:52:00,
2013-03-25 17:02:00,63.0,18.0,-100.00,SW,220,21.0,28.0,17,-99.99,,,-99.99,,2013-03-26 00:02:00,
2013-03-25 17:12:00,63.0,11.0,-100.00,SSW,212,23.0,31.0,13,-99.99,,,-99.99,,2013-03-26 00:12:00,
2013-03-25 17:22:00,63.0,11.0,-100.00,SSW,212,21.0,31.0,13,-99.99,,,-99.99,,2013-03-26 00:22:00,
2013-03-25 17:32:00,63.0,11.0,-100.00,SSW,212,21.0,31.0,13,-99.99,,,-99.99,,2013-03-26 00:32:00,
2013-03-25 17:42:00,62.0,14.0,-100.00,SW,229,21.0,28.0,15,-99.99,,,-99.99,,2013-03-26 00:42:00,
2013-03-25 17:52:00,62.0,14.0,-100.00,SW,229,21.0,28.0,15,-99.99,,,-99.99,,2013-03-26 00:52:00,
2013-03-25 18:02:00,61.0,14.0,-100.00,SW,227,18.0,26.0,16,-99.99,,,-99.99,,2013-03-26 01:02:00,
2013-03-25 18:11:00,61.0,14.0,-100.00,SW,227,18.0,26.0,16,-99.99,,,-99.99,,2013-03-26 01:11:00,
2013-03-25 18:22:00,61.0,11.0,-100.00,SW,233,20.0,28.0,14,-99.99,,,-99.99,,2013-03-26 01:22:00,
2013-03-25 18:32:00,60.0,14.0,-100.00,SW,233,15.0,21.0,16,-99.99,,,-99.99,,2013-03-26 01:32:00,
2013-03-25 18:42:00,60.0,14.0,-100.00,SW,233,15.0,21.0,16,-99.99,,,-99.99,,2013-03-26 01:42:00,
2013-03-25 18:52:00,59.0,17.0,-100.00,SW,229,17.0,27.0,19,-99.99,,,-99.99,,2013-03-26 01:52:00,
2013-03-25 19:02:00,58.0,19.0,-100.00,SW,229,15.0,22.0,22,-99.99,,,-99.99,,2013-03-26 02:02:00,
2013-03-25 19:12:00,55.0,18.0,-100.00,SW,223,14.0,20.0,23,-99.99,,,-99.99,,2013-03-26 02:12:00,
2013-03-25 19:22:00,55.0,18.0,-100.00,SW,223,14.0,20.0,23,-99.99,,,-99.99,,2013-03-26 02:22:00,
2013-03-25 19:32:00,55.0,18.0,-100.00,SW,232,15.0,22.0,23,-99.99,,,-99.99,,2013-03-26 02:32:00,
2013-03-25 19:42:00,54.0,21.0,-100.00,SW,226,14.0,18.0,27,-99.99,,,-99.99,,2013-03-26 02:42:00,
2013-03-25 19:52:00,54.0,21.0,-100.00,SW,226,14.0,18.0,27,-99.99,,,-99.99,,2013-03-26 02:52:00,
2013-03-25 20:02:00,54.0,22.0,-100.00,SW,229,13.0,20.0,29,-99.99,,,-99.99,,2013-03-26 03:02:00,
2013-03-25 20:12:00,54.0,22.0,-100.00,SW,234,14.0,21.0,29,-99.99,,,-99.99,,2013-03-26 03:12:00,
2013-03-25 20:22:00,54.0,22.0,-100.00,SW,234,14.0,21.0,29,-99.99,,,-99.99,,2013-03-26 03:22:00,
2013-03-25 20:33:00,54.0,22.0,-100.00,SW,234,14.0,21.0,29,-99.99,,,-99.99,,2013-03-26 03:33:00,
2013-03-25 20:42:00,54.0,22.0,-100.00,SW,234,14.0,21.0,29,-99.99,,,-99.99,,2013-03-26 03:42:00,
2013-03-25 20:53:00,53.0,22.0,-100.00,SW,223,10.0,16.0,30,-99.99,,,-99.99,,2013-03-26 03:53:00,
2013-03-25 21:03:00,50.0,22.0,-100.00,SW,216,9.0,13.0,33,-99.99,,,-99.99,,2013-03-26 04:03:00,
2013-03-25 21:12:00,49.0,24.0,-100.00,SSW,213,8.0,10.0,37,-99.99,,,-99.99,,2013-03-26 04:12:00,
2013-03-25 21:23:00,48.0,20.0,-100.00,SW,219,7.0,13.0,33,-99.99,,,-99.99,,2013-03-26 04:23:00,
2013-03-25 21:32:00,47.0,19.0,-100.00,SSW,213,6.0,12.0,32,-99.99,,,-99.99,,2013-03-26 04:32:00,
2013-03-25 21:43:00,47.0,19.0,-100.00,SSW,213,6.0,12.0,32,-99.99,,,-99.99,,2013-03-26 04:43:00,
2013-03-25 21:52:00,50.0,18.0,-100.00,South,185,7.0,10.0,28,-99.99,,,-99.99,,2013-03-26 04:52:00,
2013-03-25 22:02:00,50.0,18.0,-100.00,South,185,7.0,10.0,28,-99.99,,,-99.99,,2013-03-26 05:02:00,
2013-03-25 22:12:00,50.0,18.0,-100.00,South,185,7.0,10.0,28,-99.99,,,-99.99,,2013-03-26 05:12:00,
2013-03-25 22:22:00,48.0,20.0,-100.00,SSW,192,9.0,14.0,32,-99.99,,,-99.99,,2013-03-26 05:22:00,
2013-03-25 22:32:00,47.0,19.0,-100.00,SSW,195,9.0,14.0,33,-99.99,,,-99.99,,2013-03-26 05:32:00,
2013-03-25 22:42:00,48.0,16.0,-100.00,South,176,8.0,11.0,28,-99.99,,,-99.99,,2013-03-26 05:42:00,
2013-03-25 22:52:00,48.0,16.0,-100.00,SSW,192,9.0,13.0,27,-99.99,,,-99.99,,2013-03-26 05:52:00,
2013-03-25 23:02:00,48.0,16.0,-100.00,SSW,192,9.0,13.0,27,-99.99,,,-99.99,,2013-03-26 06:02:00,
2013-03-25 23:12:00,46.0,17.0,-100.00,South,179,9.0,15.0,31,-99.99,,,-99.99,,2013-03-26 06:12:00,
2013-03-25 23:21:00,48.0,16.0,-100.00,SSE,150,6.0,10.0,27,-99.99,,,-99.99,,2013-03-26 06:21:00,
2013-03-25 23:32:00,48.0,16.0,-100.00,SSE,150,6.0,10.0,27,-99.99,,,-99.99,,2013-03-26 06:32:00,
2013-03-25 23:42:00,45.0,15.0,-100.00,South,186,7.0,11.0,29,-99.99,,,-99.99,,2013-03-26 06:42:00,
2013-03-25 23:52:00,46.0,16.0,-100.00,SW,215,7.0,10.0,29,-99.99,,,-99.99,,2013-03-26 06:52:00,